Grand Island, NE

4:34 PM CDT en Septiembre 17, 2014 (GMT -0500)
Barr | Change Station
CLOSE
Current Station
Estación meteorológica personal
Location: Grand Island, NE
Altura: 1864 ft
Estaciones meteorológicas cercanas

Alt 1864 ft 40.90 °N, 98.34 °W | Updated 7 minutes ago

Despejado
Despejado
80.4 ° F
Sensación térmica 82 ° F
N
5.8
Viento Variable Viento desde ESE

Hoy
Alta -- | Baja -- ° F
--% Posibilidad de precipitaciones
Ayer
Alta -- | Baja -- ° F
Precip. -- pul
7:15 AM 7:38 PM
Creciente menguante, 33% visible
Presión 29.88 pul
Visibilidad 10.0 Millas
Nubes Despejado
Índice de calor 82 ° F
Punto de rocío 66 ° F
Humedad 61%
Precipitaciones 0.00 pul
Espesor de la nieve No disponible.
UV 5 de una escala de 12
Polen 5.60 de una escala de 12
Calidad del aire No disponible.
Flu Activity No disponible.
METAR KGRI 172053Z 15008KT 10SM CLR 27/17 A2991 RMK AO2 SLP119 T02720172 56006

More Conditions Fewer Conditions

Presión 29.88 pul
Visibilidad 10.0 Millas
Nubes Despejado
Índice de calor 82 ° F
Punto de rocío 66 ° F
Humedad 61%
Precipitaciones 0.00 pul
Espesor de la nieve No disponible.
UV 5 de una escala de 12
Polen 5.60 de una escala de 12
Calidad del aire No disponible.
Flu Activity No disponible.
METAR KGRI 172053Z 15008KT 10SM CLR 27/17 A2991 RMK AO2 SLP119 T02720172 56006

More Conditions Fewer Conditions

10-Day Weather Forecast

Almanac

Astronomía

Sep. 17, 2014 Salida Puesta
Hora real 7:15 AM CDT 7:38 PM CDT
Crepúsculo civil 6:48 AM CDT 8:06 PM CDT
Crepúsculo náutico 6:16 AM CDT 8:38 PM CDT
Crepúsculo astronómico 5:42 AM CDT 9:11 PM CDT
Luna 1:15 AM CDT 3:51 PM CDT
Horas de luz 13h 18m
Horas de luz
12h 23m
Tomorrow will be 2m 42s shorter.
Creciente menguante, 33% of the Moon is Illuminated
Hoy
Creciente menguante
Sep 24
Nueva
Oct 1
Cuarto creciente
Oct 8
Luna llena
Oct 15
Cuarto menguante

Extremos de hoy

Máximos del estado Bajos del estado

Community

WunderPhotos

Upload Photos

1,754,170 ¡fotos cargadas!

Nearby

Grosos de nieve

Estación Profundido Altura
No tenemos constancia de nieve nueva.

Actividad de terremotos

Ciudad Distance Mag. Tiempo y dato
No hay informes recientes de la actividad sísmica.
Magnitud mínima muestra es 2,5.

Temperaturas de aguas costeras

Lugar Temperatura
Sin partes meteorológicos de las estaciones

Estaciones meteorológicas cercanas